Ardmore Seamariner — V7CU9 — position and weather

sailwx.info

Track history (hours):
 
Tides and Currents Weather Stations Pressure Air Temp Water Temp Dewpoint Dewpoint Depression Visibility Wind Speed Wind Dir Waves Ship Positions

Ardmore Seamariner

Last reported at 2017-Sep-19 14:08 UTC. Time now 2017-Sep-19 20:27 UTC.
Position N 40°36' W 074°12'.

Length 180 m; draft 10.4 m.

Type: Tanker. MMSI: 538005329.

Date/timePositionNaut miles runAvg speedWind from/ knotsBaromVisibWave heightAir tempDewpointWater temp
2017-Sep-19 14:08N 40°36' W 074°12'0 0.2
2017-Sep-19 14:00N 40°36' W 074°12'1 2.8
2017-Sep-19 13:30N 40°35' W 074°13'3 4.4
2017-Sep-19 12:54N 40°33' W 074°15'3 4.6
2017-Sep-19 12:09N 40°29' W 074°15'1 6.1
2017-Sep-19 12:00N 40°30' W 074°13'3 6.0
2017-Sep-19 11:30N 40°30' W 074°10'3 6.5
2017-Sep-19 11:00N 40°29' W 074°05'3 6.7
2017-Sep-19 10:30N 40°29' W 074°01'5 9.5
2017-Sep-19 10:00N 40°27' W 073°55'4 6.8
2017-Sep-19 09:28N 40°27' W 073°51'3 6.7
2017-Sep-19 09:00N 40°28' W 073°47'5 8.3
2017-Sep-19 08:25N 40°30' W 073°41'0 0.4
2017-Sep-19 07:43N 40°31' W 073°42'0 0.0
2017-Sep-19 04:13N 40°31' W 073°42'0 0.1
2017-Sep-19 03:52N 40°31' W 073°42'0 0.0
2017-Sep-19 03:28N 40°31' W 073°42'0 0.0
2017-Sep-19 02:55N 40°31' W 073°42'0 0.0
2017-Sep-18 21:55N 40°31' W 073°42'0 0.2
2017-Sep-18 21:29N 40°31' W 073°42'1 2.3
2017-Sep-18 20:54N 40°30' W 073°43'3 7.5
2017-Sep-18 20:30N 40°28' W 073°39'5 9.9
2017-Sep-18 20:00N 40°28' W 073°33'5 9.9
2017-Sep-18 19:30N 40°28' W 073°26'510.1
2017-Sep-18 19:00N 40°29' W 073°20'612.5
2017-Sep-18 18:29N 40°30' W 073°11'613.1
2017-Sep-18 18:00N 40°30' W 073°03'713.3
2017-Sep-18 17:30N 40°30' W 072°54'813.6
2017-Sep-18 16:56N 40°31' W 072°44'613.7
2017-Sep-18 16:30N 40°31' W 072°36'913.7
2017-Sep-18 15:50N 40°31' W 072°24'613.7
2017-Sep-18 15:25N 40°31' W 072°17'1013.8
2017-Sep-18 14:44N 40°31' W 072°04'  
2017-Sep-12 04:04N 40°10' W 029°30'513.8
2017-Sep-12 03:42N 40°09' W 029°23'2014.0
2017-Sep-12 02:15N 40°06' W 028°57'413.7
2017-Sep-12 01:59N 40°05' W 028°53'1013.7
2017-Sep-12 01:13N 40°03' W 028°39'2313.9
2017-Sep-11 23:31N 39°59' W 028°09'013.1
2017-Sep-11 23:30N 39°59' W 028°08'  
Track history (hours):
 
Tides and Currents Weather Stations Pressure Air Temp Water Temp Dewpoint Dewpoint Depression Visibility Wind Speed Wind Dir Waves Ship Positions

Ardmore Seamariner

Last reported at 2017-Sep-19 14:08 UTC. Time now 2017-Sep-19 20:27 UTC.
Position N 40°36' W 074°12'.

Length 180 m; draft 10.4 m.

Type: Tanker. MMSI: 538005329.

Date/timePositionNaut miles runAvg speedWind from/ knotsBaromVisibWave heightAir tempDewpointWater temp
2017-Sep-19 14:08N 40°36' W 074°12'0 0.2
2017-Sep-19 14:00N 40°36' W 074°12'1 2.8
2017-Sep-19 13:30N 40°35' W 074°13'3 4.4
2017-Sep-19 12:54N 40°33' W 074°15'3 4.6
2017-Sep-19 12:09N 40°29' W 074°15'1 6.1
2017-Sep-19 12:00N 40°30' W 074°13'3 6.0
2017-Sep-19 11:30N 40°30' W 074°10'3 6.5
2017-Sep-19 11:00N 40°29' W 074°05'3 6.7
2017-Sep-19 10:30N 40°29' W 074°01'5 9.5
2017-Sep-19 10:00N 40°27' W 073°55'4 6.8
2017-Sep-19 09:28N 40°27' W 073°51'3 6.7
2017-Sep-19 09:00N 40°28' W 073°47'5 8.3
2017-Sep-19 08:25N 40°30' W 073°41'0 0.4
2017-Sep-19 07:43N 40°31' W 073°42'0 0.0
2017-Sep-19 04:13N 40°31' W 073°42'0 0.1
2017-Sep-19 03:52N 40°31' W 073°42'0 0.0
2017-Sep-19 03:28N 40°31' W 073°42'0 0.0
2017-Sep-19 02:55N 40°31' W 073°42'0 0.0
2017-Sep-18 21:55N 40°31' W 073°42'0 0.2
2017-Sep-18 21:29N 40°31' W 073°42'1 2.3
2017-Sep-18 20:54N 40°30' W 073°43'3 7.5
2017-Sep-18 20:30N 40°28' W 073°39'5 9.9
2017-Sep-18 20:00N 40°28' W 073°33'5 9.9
2017-Sep-18 19:30N 40°28' W 073°26'510.1
2017-Sep-18 19:00N 40°29' W 073°20'612.5
2017-Sep-18 18:29N 40°30' W 073°11'613.1
2017-Sep-18 18:00N 40°30' W 073°03'713.3
2017-Sep-18 17:30N 40°30' W 072°54'813.6
2017-Sep-18 16:56N 40°31' W 072°44'613.7
2017-Sep-18 16:30N 40°31' W 072°36'913.7
2017-Sep-18 15:50N 40°31' W 072°24'613.7
2017-Sep-18 15:25N 40°31' W 072°17'1013.8
2017-Sep-18 14:44N 40°31' W 072°04'  
2017-Sep-12 04:04N 40°10' W 029°30'513.8
2017-Sep-12 03:42N 40°09' W 029°23'2014.0
2017-Sep-12 02:15N 40°06' W 028°57'413.7
2017-Sep-12 01:59N 40°05' W 028°53'1013.7
2017-Sep-12 01:13N 40°03' W 028°39'2313.9
2017-Sep-11 23:31N 39°59' W 028°09'013.1
2017-Sep-11 23:30N 39°59' W 028°08'  

Dump ship's entire track history